sensor_id;sensor_type;location;lat;lon;timestamp;pressure;altitude;pressure_sealevel;temperature;humidity
72285;BME280;60220;53.552;10.092;2022-11-12T00:01:58;102922.00;;;10.31;78.94
72285;BME280;60220;53.552;10.092;2022-11-12T00:04:25;102914.41;;;10.08;79.60
72285;BME280;60220;53.552;10.092;2022-11-12T00:06:51;102901.34;;;10.09;79.41
72285;BME280;60220;53.552;10.092;2022-11-12T00:09:18;102907.06;;;9.93;80.22
72285;BME280;60220;53.552;10.092;2022-11-12T00:11:45;102908.53;;;10.16;79.65
72285;BME280;60220;53.552;10.092;2022-11-12T00:14:15;102920.91;;;10.20;79.15
72285;BME280;60220;53.552;10.092;2022-11-12T00:16:44;102902.72;;;9.93;79.67
72285;BME280;60220;53.552;10.092;2022-11-12T00:19:13;102904.72;;;10.04;79.26
72285;BME280;60220;53.552;10.092;2022-11-12T00:21:39;102922.34;;;10.47;78.43
72285;BME280;60220;53.552;10.092;2022-11-12T00:24:08;102922.03;;;10.70;77.18
72285;BME280;60220;53.552;10.092;2022-11-12T00:26:37;102906.19;;;10.67;76.80
72285;BME280;60220;53.552;10.092;2022-11-12T00:29:04;102906.50;;;11.76;73.28
72285;BME280;60220;53.552;10.092;2022-11-12T00:31:34;102907.44;;;11.31;74.09
72285;BME280;60220;53.552;10.092;2022-11-12T00:34:01;102917.63;;;11.13;75.09
72285;BME280;60220;53.552;10.092;2022-11-12T00:36:29;102917.88;;;11.25;74.93
72285;BME280;60220;53.552;10.092;2022-11-12T00:38:55;102916.75;;;11.60;74.16
72285;BME280;60220;53.552;10.092;2022-11-12T00:41:22;102917.56;;;11.10;74.24
72285;BME280;60220;53.552;10.092;2022-11-12T00:43:49;102913.88;;;11.02;74.81
72285;BME280;60220;53.552;10.092;2022-11-12T00:46:15;102914.50;;;10.89;76.40
72285;BME280;60220;53.552;10.092;2022-11-12T00:48:43;102915.34;;;10.88;75.67
72285;BME280;60220;53.552;10.092;2022-11-12T00:51:10;102907.69;;;10.56;76.30
72285;BME280;60220;53.552;10.092;2022-11-12T00:53:39;102900.94;;;9.92;79.10
72285;BME280;60220;53.552;10.092;2022-11-12T00:56:08;102907.59;;;9.78;80.07
72285;BME280;60220;53.552;10.092;2022-11-12T00:58:35;102896.22;;;9.78;80.44
72285;BME280;60220;53.552;10.092;2022-11-12T01:01:06;102895.53;;;9.85;79.92
72285;BME280;60220;53.552;10.092;2022-11-12T01:03:36;102894.22;;;10.04;78.74
72285;BME280;60220;53.552;10.092;2022-11-12T01:06:08;102907.66;;;10.16;78.36
72285;BME280;60220;53.552;10.092;2022-11-12T01:08:38;102901.03;;;9.96;78.53
72285;BME280;60220;53.552;10.092;2022-11-12T01:11:06;102899.25;;;9.94;78.87
72285;BME280;60220;53.552;10.092;2022-11-12T01:13:34;102901.16;;;10.02;78.01
72285;BME280;60220;53.552;10.092;2022-11-12T01:16:04;102901.59;;;10.18;77.58
72285;BME280;60220;53.552;10.092;2022-11-12T01:18:31;102904.84;;;10.46;75.98
72285;BME280;60220;53.552;10.092;2022-11-12T01:20:59;102902.28;;;9.75;78.73
72285;BME280;60220;53.552;10.092;2022-11-12T01:23:31;102895.47;;;9.83;78.27
72285;BME280;60220;53.552;10.092;2022-11-12T01:26:02;102897.34;;;9.53;79.51
72285;BME280;60220;53.552;10.092;2022-11-12T01:28:29;102890.59;;;9.99;78.66
72285;BME280;60220;53.552;10.092;2022-11-12T01:30:56;102892.63;;;9.74;78.30
72285;BME280;60220;53.552;10.092;2022-11-12T01:33:23;102901.63;;;10.20;77.50
72285;BME280;60220;53.552;10.092;2022-11-12T01:35:50;102894.63;;;9.50;79.76
72285;BME280;60220;53.552;10.092;2022-11-12T01:38:16;102898.03;;;9.46;79.86
72285;BME280;60220;53.552;10.092;2022-11-12T01:40:44;102899.34;;;9.99;78.55
72285;BME280;60220;53.552;10.092;2022-11-12T01:43:11;102893.03;;;9.55;78.34
72285;BME280;60220;53.552;10.092;2022-11-12T01:45:42;102897.38;;;9.55;78.97
72285;BME280;60220;53.552;10.092;2022-11-12T01:48:19;102899.78;;;10.16;76.83
72285;BME280;60220;53.552;10.092;2022-11-12T01:50:50;102910.34;;;10.19;76.14
72285;BME280;60220;53.552;10.092;2022-11-12T01:53:18;102892.53;;;10.06;77.52
72285;BME280;60220;53.552;10.092;2022-11-12T01:55:49;102899.03;;;9.85;77.20
72285;BME280;60220;53.552;10.092;2022-11-12T01:58:19;102903.25;;;10.54;74.95
72285;BME280;60220;53.552;10.092;2022-11-12T02:00:50;102912.31;;;11.10;73.22
72285;BME280;60220;53.552;10.092;2022-11-12T02:03:20;102908.31;;;10.87;72.76
72285;BME280;60220;53.552;10.092;2022-11-12T02:05:50;102910.22;;;10.94;73.43
72285;BME280;60220;53.552;10.092;2022-11-12T02:08:18;102908.88;;;10.70;74.28
72285;BME280;60220;53.552;10.092;2022-11-12T02:10:46;102906.56;;;10.86;73.27
72285;BME280;60220;53.552;10.092;2022-11-12T02:13:16;102905.50;;;10.77;74.08
72285;BME280;60220;53.552;10.092;2022-11-12T02:16:01;102906.03;;;10.61;74.40
72285;BME280;60220;53.552;10.092;2022-11-12T02:18:28;102914.00;;;10.64;74.45
72285;BME280;60220;53.552;10.092;2022-11-12T02:20:57;102906.47;;;10.41;74.55
72285;BME280;60220;53.552;10.092;2022-11-12T02:23:25;102906.66;;;10.11;76.32
72285;BME280;60220;53.552;10.092;2022-11-12T02:25:53;102900.63;;;10.54;75.53
72285;BME280;60220;53.552;10.092;2022-11-12T02:28:20;102899.31;;;10.33;75.74
72285;BME280;60220;53.552;10.092;2022-11-12T02:30:48;102902.88;;;10.77;74.33
72285;BME280;60220;53.552;10.092;2022-11-12T02:33:14;102894.91;;;10.31;75.33
72285;BME280;60220;53.552;10.092;2022-11-12T02:35:44;102886.66;;;9.80;78.35
72285;BME280;60220;53.552;10.092;2022-11-12T02:38:10;102897.13;;;10.53;76.48
72285;BME280;60220;53.552;10.092;2022-11-12T02:40:38;102894.91;;;10.31;75.60
72285;BME280;60220;53.552;10.092;2022-11-12T02:43:05;102894.41;;;9.75;77.99
72285;BME280;60220;53.552;10.092;2022-11-12T02:45:32;102904.72;;;10.04;76.85
72285;BME280;60220;53.552;10.092;2022-11-12T02:48:01;102910.28;;;9.47;78.15
72285;BME280;60220;53.552;10.092;2022-11-12T02:50:27;102904.56;;;9.29;79.60
72285;BME280;60220;53.552;10.092;2022-11-12T02:52:54;102911.56;;;9.30;79.19
72285;BME280;60220;53.552;10.092;2022-11-12T02:55:21;102909.53;;;8.58;82.34
72285;BME280;60220;53.552;10.092;2022-11-12T02:57:49;102899.91;;;8.87;80.78
72285;BME280;60220;53.552;10.092;2022-11-12T03:00:15;102906.09;;;8.89;80.77
72285;BME280;60220;53.552;10.092;2022-11-12T03:02:42;102907.91;;;9.23;78.37
72285;BME280;60220;53.552;10.092;2022-11-12T03:05:25;102918.84;;;9.08;78.89
72285;BME280;60220;53.552;10.092;2022-11-12T03:07:55;102910.44;;;8.59;80.02
72285;BME280;60220;53.552;10.092;2022-11-12T03:10:23;102909.13;;;8.18;83.04
72285;BME280;60220;53.552;10.092;2022-11-12T03:12:51;102913.78;;;8.27;82.37
72285;BME280;60220;53.552;10.092;2022-11-12T03:15:18;102916.94;;;8.16;82.62
72285;BME280;60220;53.552;10.092;2022-11-12T03:17:45;102930.75;;;8.12;82.69
72285;BME280;60220;53.552;10.092;2022-11-12T03:20:12;102921.13;;;8.37;81.90
72285;BME280;60220;53.552;10.092;2022-11-12T03:22:39;102919.22;;;7.79;83.55
72285;BME280;60220;53.552;10.092;2022-11-12T03:25:07;102915.84;;;7.83;84.20
72285;BME280;60220;53.552;10.092;2022-11-12T03:27:34;102922.19;;;8.73;80.48
72285;BME280;60220;53.552;10.092;2022-11-12T03:30:03;102917.03;;;8.19;82.41
72285;BME280;60220;53.552;10.092;2022-11-12T03:32:30;102924.63;;;8.67;80.07
72285;BME280;60220;53.552;10.092;2022-11-12T03:34:56;102922.88;;;8.38;80.79
72285;BME280;60220;53.552;10.092;2022-11-12T03:37:23;102923.53;;;8.59;80.25
72285;BME280;60220;53.552;10.092;2022-11-12T03:39:50;102924.72;;;8.70;79.62
72285;BME280;60220;53.552;10.092;2022-11-12T03:42:18;102923.41;;;8.01;82.24
72285;BME280;60220;53.552;10.092;2022-11-12T03:44:45;102914.19;;;7.85;82.92
72285;BME280;60220;53.552;10.092;2022-11-12T03:47:15;102921.63;;;8.27;82.34
72285;BME280;60220;53.552;10.092;2022-11-12T03:49:42;102921.06;;;7.83;82.22
72285;BME280;60220;53.552;10.092;2022-11-12T03:52:11;102919.38;;;8.10;83.13
72285;BME280;60220;53.552;10.092;2022-11-12T03:54:37;102927.00;;;8.04;82.01
72285;BME280;60220;53.552;10.092;2022-11-12T03:57:06;102939.22;;;9.19;79.03
72285;BME280;60220;53.552;10.092;2022-11-12T03:59:35;102921.19;;;8.13;80.41
72285;BME280;60220;53.552;10.092;2022-11-12T04:02:02;102918.66;;;7.89;82.43
72285;BME280;60220;53.552;10.092;2022-11-12T04:04:30;102924.72;;;7.88;82.86
72285;BME280;60220;53.552;10.092;2022-11-12T04:07:13;102923.41;;;7.49;83.47
72285;BME280;60220;53.552;10.092;2022-11-12T04:09:57;102923.91;;;7.64;84.45
72285;BME280;60220;53.552;10.092;2022-11-12T04:12:26;102938.97;;;8.50;79.79
72285;BME280;60220;53.552;10.092;2022-11-12T04:15:10;102930.88;;;8.15;80.52
72285;BME280;60220;53.552;10.092;2022-11-12T04:17:37;102925.81;;;7.95;81.32
72285;BME280;60220;53.552;10.092;2022-11-12T04:20:22;102947.72;;;8.52;79.57
72285;BME280;60220;53.552;10.092;2022-11-12T04:23:09;102943.41;;;8.82;77.19
72285;BME280;60220;53.552;10.092;2022-11-12T04:25:38;102929.13;;;7.89;81.20
72285;BME280;60220;53.552;10.092;2022-11-12T04:28:24;102932.31;;;8.07;79.90
72285;BME280;60220;53.552;10.092;2022-11-12T04:30:53;102918.16;;;7.49;81.98
72285;BME280;60220;53.552;10.092;2022-11-12T04:33:19;102922.13;;;7.88;82.55
72285;BME280;60220;53.552;10.092;2022-11-12T04:35:49;102925.63;;;8.15;79.75
72285;BME280;60220;53.552;10.092;2022-11-12T04:38:16;102928.00;;;7.81;79.95
72285;BME280;60220;53.552;10.092;2022-11-12T04:40:44;102925.69;;;7.40;82.94
72285;BME280;60220;53.552;10.092;2022-11-12T04:43:31;102943.94;;;8.71;77.69
72285;BME280;60220;53.552;10.092;2022-11-12T04:46:15;102943.19;;;8.19;78.18
72285;BME280;60220;53.552;10.092;2022-11-12T04:48:44;102928.91;;;7.32;81.22
72285;BME280;60220;53.552;10.092;2022-11-12T04:51:16;102933.41;;;7.87;81.04
72285;BME280;60220;53.552;10.092;2022-11-12T04:54:00;102930.41;;;7.50;81.18
72285;BME280;60220;53.552;10.092;2022-11-12T04:56:28;102929.44;;;7.22;82.51
72285;BME280;60220;53.552;10.092;2022-11-12T04:58:55;102936.28;;;8.21;78.89
72285;BME280;60220;53.552;10.092;2022-11-12T05:01:24;102936.88;;;8.13;78.97
72285;BME280;60220;53.552;10.092;2022-11-12T05:03:57;102949.91;;;8.95;76.55
72285;BME280;60220;53.552;10.092;2022-11-12T05:06:25;102939.19;;;8.04;77.50
72285;BME280;60220;53.552;10.092;2022-11-12T05:09:09;102944.44;;;8.04;78.47
72285;BME280;60220;53.552;10.092;2022-11-12T05:11:38;102931.81;;;7.91;77.95
72285;BME280;60220;53.552;10.092;2022-11-12T05:14:05;102928.75;;;7.77;78.45
72285;BME280;60220;53.552;10.092;2022-11-12T05:16:41;102937.41;;;7.76;78.63
72285;BME280;60220;53.552;10.092;2022-11-12T05:19:13;102924.09;;;7.19;81.66
72285;BME280;60220;53.552;10.092;2022-11-12T05:21:42;102936.09;;;8.15;78.76
72285;BME280;60220;53.552;10.092;2022-11-12T05:24:26;102933.72;;;7.96;77.36
72285;BME280;60220;53.552;10.092;2022-11-12T05:26:57;102920.94;;;7.04;81.31
72285;BME280;60220;53.552;10.092;2022-11-12T05:29:27;102928.84;;;7.55;79.90
72285;BME280;60220;53.552;10.092;2022-11-12T05:31:59;102937.81;;;7.63;78.61
72285;BME280;60220;53.552;10.092;2022-11-12T05:34:26;102935.41;;;7.44;80.02
72285;BME280;60220;53.552;10.092;2022-11-12T05:37:01;102935.19;;;7.88;78.61
72285;BME280;60220;53.552;10.092;2022-11-12T05:39:32;102936.56;;;7.26;79.81
72285;BME280;60220;53.552;10.092;2022-11-12T05:41:59;102924.72;;;6.42;83.47
72285;BME280;60220;53.552;10.092;2022-11-12T05:44:26;102934.34;;;7.37;80.39
72285;BME280;60220;53.552;10.092;2022-11-12T05:46:55;102939.69;;;7.16;80.58
72285;BME280;60220;53.552;10.092;2022-11-12T05:49:22;102939.13;;;7.01;81.31
72285;BME280;60220;53.552;10.092;2022-11-12T05:51:50;102952.88;;;7.45;79.66
72285;BME280;60220;53.552;10.092;2022-11-12T05:54:18;102947.34;;;7.61;79.22
72285;BME280;60220;53.552;10.092;2022-11-12T05:56:47;102936.06;;;7.37;79.37
72285;BME280;60220;53.552;10.092;2022-11-12T05:59:14;102941.44;;;7.17;79.98
72285;BME280;60220;53.552;10.092;2022-11-12T06:01:41;102950.88;;;6.90;80.90
72285;BME280;60220;53.552;10.092;2022-11-12T06:04:10;102959.44;;;7.33;78.73
72285;BME280;60220;53.552;10.092;2022-11-12T06:06:37;102951.97;;;6.73;81.05
72285;BME280;60220;53.552;10.092;2022-11-12T06:09:04;102958.25;;;6.78;81.13
72285;BME280;60220;53.552;10.092;2022-11-12T06:11:32;102966.44;;;6.87;81.41
72285;BME280;60220;53.552;10.092;2022-11-12T06:13:59;102971.09;;;6.72;81.38
72285;BME280;60220;53.552;10.092;2022-11-12T06:16:26;102974.38;;;6.90;81.14
72285;BME280;60220;53.552;10.092;2022-11-12T06:18:53;102959.03;;;6.53;81.02
72285;BME280;60220;53.552;10.092;2022-11-12T06:21:20;102955.66;;;6.33;82.12
72285;BME280;60220;53.552;10.092;2022-11-12T06:23:53;102965.91;;;6.73;81.21
72285;BME280;60220;53.552;10.092;2022-11-12T06:26:24;102970.31;;;6.74;80.86
72285;BME280;60220;53.552;10.092;2022-11-12T06:28:53;102962.03;;;6.19;81.93
72285;BME280;60220;53.552;10.092;2022-11-12T06:31:20;102965.31;;;6.36;82.64
72285;BME280;60220;53.552;10.092;2022-11-12T06:33:47;102961.56;;;6.96;80.42
72285;BME280;60220;53.552;10.092;2022-11-12T06:36:18;102966.44;;;6.87;80.28
72285;BME280;60220;53.552;10.092;2022-11-12T06:38:45;102979.34;;;7.06;80.27
72285;BME280;60220;53.552;10.092;2022-11-12T06:41:13;102974.06;;;7.05;80.18
72285;BME280;60220;53.552;10.092;2022-11-12T06:43:40;102979.91;;;7.21;78.87
72285;BME280;60220;53.552;10.092;2022-11-12T06:46:12;102973.47;;;7.12;78.98
72285;BME280;60220;53.552;10.092;2022-11-12T06:48:39;102970.78;;;6.86;79.57
72285;BME280;60220;53.552;10.092;2022-11-12T06:51:15;102981.91;;;6.38;81.58
72285;BME280;60220;53.552;10.092;2022-11-12T06:53:42;102994.44;;;6.69;80.67
72285;BME280;60220;53.552;10.092;2022-11-12T06:56:08;102995.91;;;7.07;80.34
72285;BME280;60220;53.552;10.092;2022-11-12T06:58:35;102987.22;;;7.08;79.92
72285;BME280;60220;53.552;10.092;2022-11-12T07:01:06;102975.00;;;6.18;82.67
72285;BME280;60220;53.552;10.092;2022-11-12T07:03:36;102987.75;;;6.75;82.19
72285;BME280;60220;53.552;10.092;2022-11-12T07:06:07;103004.16;;;6.95;80.50
72285;BME280;60220;53.552;10.092;2022-11-12T07:08:37;102994.41;;;6.24;82.37
72285;BME280;60220;53.552;10.092;2022-11-12T07:11:04;102983.50;;;6.34;82.89
72285;BME280;60220;53.552;10.092;2022-11-12T07:13:32;102981.91;;;6.38;81.92
72285;BME280;60220;53.552;10.092;2022-11-12T07:16:02;102993.81;;;6.98;80.41
72285;BME280;60220;53.552;10.092;2022-11-12T07:18:30;103000.16;;;6.81;80.46
72285;BME280;60220;53.552;10.092;2022-11-12T07:21:02;102993.75;;;6.08;83.55
72285;BME280;60220;53.552;10.092;2022-11-12T07:23:31;103015.97;;;6.85;80.93
72285;BME280;60220;53.552;10.092;2022-11-12T07:25:59;103011.53;;;7.05;79.41
72285;BME280;60220;53.552;10.092;2022-11-12T07:28:26;102999.66;;;6.69;79.34
72285;BME280;60220;53.552;10.092;2022-11-12T07:30:54;103004.88;;;6.46;82.12
72285;BME280;60220;53.552;10.092;2022-11-12T07:33:22;103019.25;;;7.02;79.63
72285;BME280;60220;53.552;10.092;2022-11-12T07:35:56;103002.78;;;7.76;76.95
72285;BME280;60220;53.552;10.092;2022-11-12T07:38:24;103001.13;;;8.05;75.43
72285;BME280;60220;53.552;10.092;2022-11-12T07:40:50;103004.63;;;7.55;76.43
72285;BME280;60220;53.552;10.092;2022-11-12T07:43:17;103004.22;;;7.93;75.65
72285;BME280;60220;53.552;10.092;2022-11-12T07:45:46;103006.03;;;7.45;76.03
72285;BME280;60220;53.552;10.092;2022-11-12T07:48:12;103008.00;;;7.05;78.39
72285;BME280;60220;53.552;10.092;2022-11-12T07:50:39;103011.53;;;7.05;78.49
72285;BME280;60220;53.552;10.092;2022-11-12T07:53:05;103014.28;;;7.57;77.38
72285;BME280;60220;53.552;10.092;2022-11-12T07:55:33;103015.84;;;6.82;79.01
72285;BME280;60220;53.552;10.092;2022-11-12T07:58:00;103007.03;;;7.01;79.12
72285;BME280;60220;53.552;10.092;2022-11-12T08:00:27;103011.84;;;7.14;78.73
72285;BME280;60220;53.552;10.092;2022-11-12T08:02:53;103009.88;;;6.85;79.79
72285;BME280;60220;53.552;10.092;2022-11-12T08:05:20;103012.19;;;7.71;77.86
72285;BME280;60220;53.552;10.092;2022-11-12T08:07:47;103023.63;;;7.74;76.11
72285;BME280;60220;53.552;10.092;2022-11-12T08:10:14;103017.69;;;7.07;77.95
72285;BME280;60220;53.552;10.092;2022-11-12T08:12:42;103012.56;;;6.86;79.68
72285;BME280;60220;53.552;10.092;2022-11-12T08:15:08;103017.25;;;7.43;78.52
72285;BME280;60220;53.552;10.092;2022-11-12T08:17:38;103026.81;;;8.16;75.79
72285;BME280;60220;53.552;10.092;2022-11-12T08:20:06;103020.75;;;7.92;75.89
72285;BME280;60220;53.552;10.092;2022-11-12T08:22:35;103008.09;;;7.79;76.77
72285;BME280;60220;53.552;10.092;2022-11-12T08:25:02;103024.38;;;8.48;74.12
72285;BME280;60220;53.552;10.092;2022-11-12T08:27:28;103025.16;;;8.72;71.99
72285;BME280;60220;53.552;10.092;2022-11-12T08:29:59;103027.38;;;8.08;73.94
72285;BME280;60220;53.552;10.092;2022-11-12T08:32:25;103031.31;;;8.20;73.72
72285;BME280;60220;53.552;10.092;2022-11-12T08:34:52;103039.84;;;8.40;73.06
72285;BME280;60220;53.552;10.092;2022-11-12T08:37:21;103033.94;;;8.20;72.80
72285;BME280;60220;53.552;10.092;2022-11-12T08:39:48;103030.94;;;8.10;74.42
72285;BME280;60220;53.552;10.092;2022-11-12T08:42:14;103032.84;;;8.68;73.63
72285;BME280;60220;53.552;10.092;2022-11-12T08:44:43;103042.25;;;9.47;70.40
72285;BME280;60220;53.552;10.092;2022-11-12T08:47:11;103041.88;;;8.49;74.17
72285;BME280;60220;53.552;10.092;2022-11-12T08:49:40;103046.16;;;8.47;72.02
72285;BME280;60220;53.552;10.092;2022-11-12T08:52:06;103047.84;;;8.19;74.71
72285;BME280;60220;53.552;10.092;2022-11-12T08:54:35;103046.06;;;8.99;70.96
72285;BME280;60220;53.552;10.092;2022-11-12T08:57:02;103057.44;;;8.71;72.01
72285;BME280;60220;53.552;10.092;2022-11-12T08:59:28;103053.31;;;8.79;69.96
72285;BME280;60220;53.552;10.092;2022-11-12T09:01:55;103049.09;;;8.05;73.06
72285;BME280;60220;53.552;10.092;2022-11-12T09:04:23;103051.97;;;8.37;73.92
72285;BME280;60220;53.552;10.092;2022-11-12T09:06:50;103063.38;;;8.94;70.37
72285;BME280;60220;53.552;10.092;2022-11-12T09:09:16;103052.81;;;8.91;71.30
72285;BME280;60220;53.552;10.092;2022-11-12T09:11:45;103046.72;;;8.37;73.14
72285;BME280;60220;53.552;10.092;2022-11-12T09:14:12;103044.00;;;8.34;73.57
72285;BME280;60220;53.552;10.092;2022-11-12T09:16:41;103047.84;;;9.30;69.77
72285;BME280;60220;53.552;10.092;2022-11-12T09:19:08;103058.03;;;9.80;68.17
72285;BME280;60220;53.552;10.092;2022-11-12T09:21:38;103050.09;;;9.47;69.12
72285;BME280;60220;53.552;10.092;2022-11-12T09:24:05;103059.22;;;9.93;67.72
72285;BME280;60220;53.552;10.092;2022-11-12T09:26:32;103062.06;;;9.38;69.60
72285;BME280;60220;53.552;10.092;2022-11-12T09:28:58;103055.63;;;9.27;70.56
72285;BME280;60220;53.552;10.092;2022-11-12T09:31:25;103055.78;;;9.63;69.73
72285;BME280;60220;53.552;10.092;2022-11-12T09:33:52;103060.00;;;9.89;70.89
72285;BME280;60220;53.552;10.092;2022-11-12T09:36:21;103041.31;;;10.10;68.30
72285;BME280;60220;53.552;10.092;2022-11-12T09:38:49;103041.03;;;10.32;66.99
72285;BME280;60220;53.552;10.092;2022-11-12T09:41:21;103045.47;;;10.02;67.79
72285;BME280;60220;53.552;10.092;2022-11-12T09:43:50;103060.13;;;10.26;66.77
72285;BME280;60220;53.552;10.092;2022-11-12T09:46:28;103066.25;;;10.25;67.36
72285;BME280;60220;53.552;10.092;2022-11-12T09:49:01;103056.50;;;10.93;65.95
72285;BME280;60220;53.552;10.092;2022-11-12T09:51:32;103062.13;;;10.72;65.79
72285;BME280;60220;53.552;10.092;2022-11-12T09:54:09;103042.97;;;10.39;66.37
72285;BME280;60220;53.552;10.092;2022-11-12T09:56:38;103049.50;;;10.20;67.86
72285;BME280;60220;53.552;10.092;2022-11-12T09:59:09;103047.50;;;10.46;67.72
72285;BME280;60220;53.552;10.092;2022-11-12T10:01:42;103059.81;;;10.85;65.33
72285;BME280;60220;53.552;10.092;2022-11-12T10:04:37;103066.56;;;11.54;62.83
72285;BME280;60220;53.552;10.092;2022-11-12T10:07:12;103051.47;;;10.66;64.94
72285;BME280;60220;53.552;10.092;2022-11-12T10:09:53;103051.75;;;10.41;66.48
72285;BME280;60220;53.552;10.092;2022-11-12T10:12:32;103051.56;;;11.08;64.85
72285;BME280;60220;53.552;10.092;2022-11-12T10:15:17;103058.84;;;11.20;64.68
72285;BME280;60220;53.552;10.092;2022-11-12T10:18:06;103054.75;;;11.34;63.05
72285;BME280;60220;53.552;10.092;2022-11-12T10:20:42;103058.97;;;12.15;61.49
72285;BME280;60220;53.552;10.092;2022-11-12T10:23:18;103057.13;;;12.11;64.46
72285;BME280;60220;53.552;10.092;2022-11-12T10:25:49;103068.25;;;11.96;63.03
72285;BME280;60220;53.552;10.092;2022-11-12T10:28:25;103066.44;;;11.92;64.15
72285;BME280;60220;53.552;10.092;2022-11-12T10:30:55;103070.25;;;12.59;60.84
72285;BME280;60220;53.552;10.092;2022-11-12T10:33:29;103074.09;;;12.82;61.23
72285;BME280;60220;53.552;10.092;2022-11-12T10:36:04;103079.31;;;12.23;62.23
72285;BME280;60220;53.552;10.092;2022-11-12T10:38:37;103080.19;;;12.78;58.95
72285;BME280;60220;53.552;10.092;2022-11-12T10:41:20;103060.53;;;12.55;61.10
72285;BME280;60220;53.552;10.092;2022-11-12T10:43:53;103073.72;;;12.58;60.91
72285;BME280;60220;53.552;10.092;2022-11-12T10:46:22;103082.53;;;12.58;61.17
72285;BME280;60220;53.552;10.092;2022-11-12T10:48:53;103076.63;;;12.76;59.90
72285;BME280;60220;53.552;10.092;2022-11-12T10:51:27;103064.16;;;12.63;60.70
72285;BME280;60220;53.552;10.092;2022-11-12T10:53:54;103059.22;;;12.28;62.14
72285;BME280;60220;53.552;10.092;2022-11-12T10:56:25;103052.56;;;12.51;61.58
72285;BME280;60220;53.552;10.092;2022-11-12T10:59:09;103072.38;;;13.46;58.25
72285;BME280;60220;53.552;10.092;2022-11-12T11:01:38;103070.66;;;13.48;58.52
72285;BME280;60220;53.552;10.092;2022-11-12T11:04:14;103064.91;;;13.84;58.00
72285;BME280;60220;53.552;10.092;2022-11-12T11:06:42;103057.34;;;12.77;60.71
72285;BME280;60220;53.552;10.092;2022-11-12T11:09:15;103064.41;;;13.41;59.60
72285;BME280;60220;53.552;10.092;2022-11-12T11:11:50;103064.91;;;13.85;57.92
72285;BME280;60220;53.552;10.092;2022-11-12T11:14:26;103065.97;;;14.05;57.02
72285;BME280;60220;53.552;10.092;2022-11-12T11:16:55;103069.88;;;13.55;58.69
72285;BME280;60220;53.552;10.092;2022-11-12T11:19:29;103065.56;;;13.63;58.80
72285;BME280;60220;53.552;10.092;2022-11-12T11:22:22;103054.16;;;13.67;58.16
72285;BME280;60220;53.552;10.092;2022-11-12T11:25:03;103052.47;;;13.04;60.68
72285;BME280;60220;53.552;10.092;2022-11-12T11:27:38;103053.09;;;13.50;61.90
72285;BME280;60220;53.552;10.092;2022-11-12T11:30:09;103056.72;;;13.61;60.02
72285;BME280;60220;53.552;10.092;2022-11-12T11:35:51;103035.41;;;13.43;59.03
72285;BME280;60220;53.552;10.092;2022-11-12T11:38:32;103039.94;;;13.56;59.25
72285;BME280;60220;53.552;10.092;2022-11-12T11:41:10;103039.44;;;13.90;58.76
72285;BME280;60220;53.552;10.092;2022-11-12T11:43:52;103042.44;;;13.42;59.83
72285;BME280;60220;53.552;10.092;2022-11-12T11:46:32;103043.44;;;13.53;59.79
72285;BME280;60220;53.552;10.092;2022-11-12T11:49:15;103040.22;;;13.82;58.68
72285;BME280;60220;53.552;10.092;2022-11-12T11:51:50;103044.44;;;13.63;58.64
72285;BME280;60220;53.552;10.092;2022-11-12T11:54:40;103055.16;;;13.78;58.64
72285;BME280;60220;53.552;10.092;2022-11-12T11:57:14;103048.50;;;14.18;57.66
72285;BME280;60220;53.552;10.092;2022-11-12T11:59:57;103048.53;;;14.19;58.57
72285;BME280;60220;53.552;10.092;2022-11-12T12:02:52;103048.00;;;13.68;59.00
72285;BME280;60220;53.552;10.092;2022-11-12T12:05:32;103037.16;;;14.28;58.11
72285;BME280;60220;53.552;10.092;2022-11-12T12:08:07;103049.72;;;13.63;59.15
72285;BME280;60220;53.552;10.092;2022-11-12T12:10:43;103043.47;;;14.44;56.62
72285;BME280;60220;53.552;10.092;2022-11-12T12:13:20;103043.66;;;14.71;56.76
72285;BME280;60220;53.552;10.092;2022-11-12T12:16:04;103050.56;;;14.48;57.97
72285;BME280;60220;53.552;10.092;2022-11-12T12:18:39;103051.91;;;14.03;58.24
72285;BME280;60220;53.552;10.092;2022-11-12T12:21:15;103046.94;;;14.37;57.85
72285;BME280;60220;53.552;10.092;2022-11-12T12:23:45;103042.75;;;13.71;58.64
72285;BME280;60220;53.552;10.092;2022-11-12T12:26:17;103042.19;;;14.01;59.31
72285;BME280;60220;53.552;10.092;2022-11-12T12:28:52;103031.94;;;14.34;57.10
72285;BME280;60220;53.552;10.092;2022-11-12T12:31:26;103039.63;;;14.08;59.05
72285;BME280;60220;53.552;10.092;2022-11-12T12:33:57;103039.78;;;14.27;58.01
72285;BME280;60220;53.552;10.092;2022-11-12T12:36:31;103027.34;;;14.16;57.88
72285;BME280;60220;53.552;10.092;2022-11-12T12:39:08;103028.84;;;13.84;59.06
72285;BME280;60220;53.552;10.092;2022-11-12T12:41:43;103023.91;;;14.27;57.86
72285;BME280;60220;53.552;10.092;2022-11-12T12:44:12;103011.56;;;14.19;58.27
72285;BME280;60220;53.552;10.092;2022-11-12T12:46:45;103004.81;;;14.58;57.93
72285;BME280;60220;53.552;10.092;2022-11-12T12:49:15;103003.47;;;14.03;59.23
72285;BME280;60220;53.552;10.092;2022-11-12T12:51:43;103004.44;;;14.15;58.41
72285;BME280;60220;53.552;10.092;2022-11-12T12:57:31;103002.22;;;13.63;60.56
72285;BME280;60220;53.552;10.092;2022-11-12T13:00:25;102997.31;;;14.02;58.99
72285;BME280;60220;53.552;10.092;2022-11-12T13:02:54;102990.31;;;14.10;59.50
72285;BME280;60220;53.552;10.092;2022-11-12T13:05:25;103000.94;;;14.13;59.46
72285;BME280;60220;53.552;10.092;2022-11-12T13:07:55;102995.97;;;13.56;60.75
72285;BME280;60220;53.552;10.092;2022-11-12T13:10:52;102991.66;;;13.63;61.24